Time;durP1;ratioP1;P1;durP2;ratioP2;P2;SDS_P1;SDS_P2;PMS_P1;PMS_P2;Temp;Humidity;BMP_temperature;BMP_pressure;BME280_temperature;BME280_humidity;BME280_pressure;Samples;Min_cycle;Max_cycle;Signal;HPM_P1;HPM_P2
2022/09/15 00:02:10;;;;;;;3.08;1.20;;;13.90;99.90;;;;;;5090518;28;20127;-52
2022/09/15 00:04:36;;;;;;;1.42;1.05;;;13.90;99.90;;;;;;5088051;28;20111;-52
2022/09/15 00:07:01;;;;;;;4.30;1.58;;;13.90;99.90;;;;;;5089855;28;20177;-54
2022/09/15 00:09:27;;;;;;;2.20;1.42;;;13.90;99.90;;;;;;5102251;28;20120;-53
2022/09/15 00:11:52;;;;;;;3.25;1.20;;;13.90;99.90;;;;;;5070210;28;20309;-52
2022/09/15 00:14:18;;;;;;;1.63;1.02;;;13.90;99.90;;;;;;5099846;28;20063;-54
2022/09/15 00:16:43;;;;;;;4.65;1.55;;;13.90;99.90;;;;;;5093948;28;20039;-54
2022/09/15 00:19:09;;;;;;;3.13;1.50;;;13.90;99.90;;;;;;5083583;28;20062;-54
2022/09/15 00:21:38;;;;;;;4.63;2.22;;;13.90;99.90;;;;;;5110379;28;20058;-55
2022/09/15 00:24:04;;;;;;;2.05;1.60;;;13.90;99.90;;;;;;5086300;28;20531;-52
2022/09/15 00:26:30;;;;;;;3.95;1.88;;;13.90;99.90;;;;;;5084412;28;20420;-52
2022/09/15 00:28:57;;;;;;;4.32;1.95;;;13.90;99.90;;;;;;5070062;28;20037;-55
2022/09/15 00:31:25;;;;;;;2.20;1.58;;;13.90;99.90;;;;;;5069757;28;20051;-50
2022/09/15 00:33:53;;;;;;;1.85;1.38;;;13.90;99.90;;;;;;5069767;28;20032;-54
2022/09/15 00:36:20;;;;;;;2.15;1.38;;;13.90;99.90;;;;;;5070293;28;20408;-56
2022/09/15 00:38:46;;;;;;;2.67;1.70;;;13.90;99.90;;;;;;5068439;28;20059;-54
2022/09/15 00:41:14;;;;;;;4.07;2.22;;;14.00;99.90;;;;;;5069300;28;20041;-54
2022/09/15 00:43:53;;;;;;;3.58;2.08;;;14.00;99.90;;;;;;5068197;28;20055;-54
2022/09/15 00:46:26;;;;;;;7.70;1.80;;;14.00;99.90;;;;;;5069457;28;20432;-52
2022/09/15 00:48:58;;;;;;;1.90;1.38;;;14.00;99.90;;;;;;5073948;28;20051;-51
2022/09/15 00:51:31;;;;;;;3.55;1.85;;;14.00;99.90;;;;;;5073263;28;20032;-53
2022/09/15 00:54:00;;;;;;;2.38;1.45;;;14.00;99.90;;;;;;5093517;28;20436;-51
2022/09/15 00:56:27;;;;;;;6.40;2.40;;;13.90;99.90;;;;;;5093221;28;20500;-51
2022/09/15 00:58:59;;;;;;;2.92;2.28;;;13.90;99.90;;;;;;5087784;28;20035;-52
2022/09/15 01:01:27;;;;;;;3.83;2.05;;;13.90;99.90;;;;;;5113964;28;20039;-51
2022/09/15 01:03:54;;;;;;;2.25;1.40;;;13.90;99.90;;;;;;5100072;28;20035;-54
2022/09/15 01:06:30;;;;;;;5.53;1.70;;;13.90;99.90;;;;;;5114142;28;20043;-51
2022/09/15 01:09:20;;;;;;;4.23;2.27;;;14.00;99.90;;;;;;5102529;28;20053;-51
2022/09/15 01:11:45;;;;;;;4.43;1.88;;;14.00;99.90;;;;;;5103486;28;20331;-51
2022/09/15 01:14:11;;;;;;;2.75;2.00;;;13.90;99.90;;;;;;5097037;28;20484;-51
2022/09/15 01:16:57;;;;;;;4.35;2.13;;;13.90;99.90;;;;;;5096287;28;20040;-52
2022/09/15 01:19:36;;;;;;;6.13;2.22;;;13.90;99.90;;;;;;5093811;28;20427;-55
2022/09/15 01:22:31;;;;;;;3.13;2.20;;;13.90;99.90;;;;;;5080549;28;20098;-52
2022/09/15 01:25:07;;;;;;;5.45;2.65;;;13.90;99.90;;;;;;5101163;28;20044;-51
2022/09/15 01:27:56;;;;;;;2.70;2.50;;;13.90;99.90;;;;;;5113319;28;20043;-55
2022/09/15 01:30:23;;;;;;;5.53;3.28;;;13.90;99.90;;;;;;5107773;28;20039;-53
2022/09/15 01:33:04;;;;;;;4.68;2.75;;;13.90;99.90;;;;;;5094813;28;20308;-51
2022/09/15 01:35:47;;;;;;;7.22;3.40;;;13.90;99.90;;;;;;5104451;28;20044;-52
2022/09/15 01:38:46;;;;;;;4.78;3.42;;;13.90;99.90;;;;;;5113025;28;20046;-51
2022/09/15 01:41:24;;;;;;;5.78;3.97;;;13.90;99.90;;;;;;5078471;28;20082;-53
2022/09/15 01:43:58;;;;;;;4.50;3.90;;;13.90;99.90;;;;;;5102313;28;20397;-55
2022/09/15 01:46:28;;;;;;;4.82;3.42;;;14.00;99.90;;;;;;5109511;28;20497;-50
2022/09/15 01:48:57;;;;;;;6.68;3.63;;;14.00;99.90;;;;;;5094861;28;20052;-50
2022/09/15 01:51:25;;;;;;;8.13;3.97;;;14.00;99.90;;;;;;5091237;28;20118;-52
2022/09/15 01:53:53;;;;;;;4.38;3.88;;;14.10;99.90;;;;;;5092398;28;20161;-52
2022/09/15 01:56:18;;;;;;;8.05;3.90;;;14.10;99.90;;;;;;5109337;28;20062;-55
2022/09/15 01:58:44;;;;;;;5.85;3.55;;;14.10;99.90;;;;;;5109982;28;20039;-53
2022/09/15 02:01:18;;;;;;;3.55;3.20;;;14.10;99.90;;;;;;5102002;28;20046;-53
2022/09/15 02:03:55;;;;;;;5.25;2.75;;;14.10;99.90;;;;;;5094742;28;20032;-54
2022/09/15 02:06:36;;;;;;;5.63;3.55;;;14.10;99.90;;;;;;5101140;28;20043;-52
2022/09/15 02:09:19;;;;;;;5.50;3.03;;;14.10;99.90;;;;;;5112212;28;20112;-51
2022/09/15 02:12:06;;;;;;;5.78;3.38;;;14.10;99.90;;;;;;5095634;28;20040;-51
2022/09/15 02:15:04;;;;;;;5.38;2.67;;;14.10;99.90;;;;;;5097816;28;20037;-55
2022/09/15 02:17:37;;;;;;;7.05;4.05;;;14.10;99.90;;;;;;5077607;28;20059;-54
2022/09/15 02:20:19;;;;;;;7.35;3.72;;;14.00;99.90;;;;;;5097982;28;20086;-51
2022/09/15 02:22:52;;;;;;;4.72;3.10;;;14.00;99.90;;;;;;5090835;28;20032;-51
2022/09/15 02:25:24;;;;;;;6.07;2.97;;;13.90;99.90;;;;;;5087506;28;20115;-51
2022/09/15 02:27:53;;;;;;;6.78;3.63;;;13.90;99.90;;;;;;5071697;28;20052;-53
2022/09/15 02:30:20;;;;;;;4.32;3.65;;;13.90;99.90;;;;;;5071576;28;20439;-52
2022/09/15 02:33:01;;;;;;;5.85;3.10;;;13.90;99.90;;;;;;5087200;28;20028;-54
2022/09/15 02:35:29;;;;;;;3.80;3.47;;;13.90;99.90;;;;;;5091771;28;20047;-54
2022/09/15 02:37:55;;;;;;;5.60;3.70;;;13.90;99.90;;;;;;5088613;28;20080;-56
2022/09/15 02:40:22;;;;;;;6.05;3.67;;;13.90;99.90;;;;;;5053094;28;20048;-55
2022/09/15 02:42:52;;;;;;;;;;;13.90;99.90;;;;;;5072808;28;20060;-53
2022/09/15 02:45:18;;;;;;;6.93;4.20;;;14.00;99.90;;;;;;5074897;28;19916;-51
2022/09/15 02:47:44;;;;;;;4.10;3.13;;;14.00;99.90;;;;;;5070816;28;20045;-51
2022/09/15 02:50:10;;;;;;;7.57;4.07;;;14.00;99.90;;;;;;5070885;28;20036;-51
2022/09/15 02:52:36;;;;;;;5.00;3.10;;;14.00;99.90;;;;;;5079172;28;20054;-52
2022/09/15 02:55:01;;;;;;;4.20;2.95;;;14.00;99.90;;;;;;5098637;28;20035;-54
2022/09/15 02:57:27;;;;;;;3.17;2.88;;;14.00;99.90;;;;;;5094286;28;20130;-51
2022/09/15 03:02:37;;;;;;;3.90;3.20;;;14.10;99.90;;;;;;5100779;28;20282;-50
2022/09/15 03:05:03;;;;;;;5.10;3.13;;;14.00;99.90;;;;;;5075517;28;20036;-53
2022/09/15 03:07:29;;;;;;;2.88;2.63;;;14.10;99.90;;;;;;5096403;28;20492;-54
2022/09/15 03:09:54;;;;;;;7.75;2.83;;;14.00;99.90;;;;;;5096605;28;20035;-55
2022/09/15 03:12:20;;;;;;;4.10;2.95;;;14.00;99.90;;;;;;5095995;28;20489;-50
2022/09/15 03:14:46;;;;;;;3.08;2.78;;;14.00;99.90;;;;;;5090508;28;20103;-51
2022/09/15 03:17:12;;;;;;;4.57;2.53;;;14.00;99.90;;;;;;5103422;28;20193;-51
2022/09/15 03:19:37;;;;;;;5.53;2.05;;;14.00;99.90;;;;;;5110905;28;20058;-52
2022/09/15 03:22:03;;;;;;;8.02;2.40;;;14.00;99.90;;;;;;5093064;28;20478;-54
2022/09/15 03:24:29;;;;;;;3.65;1.30;;;14.00;99.90;;;;;;5080585;28;20040;-55
2022/09/15 03:26:54;;;;;;;3.33;1.30;;;14.00;99.90;;;;;;5100290;28;20115;-54
2022/09/15 03:29:20;;;;;;;6.38;1.10;;;14.10;99.90;;;;;;5089576;28;20043;-55
2022/09/15 03:31:46;;;;;;;7.07;1.42;;;14.10;99.90;;;;;;5098152;28;20451;-55
2022/09/15 03:34:11;;;;;;;6.13;1.23;;;14.10;99.90;;;;;;5085280;28;20497;-54
2022/09/15 03:36:37;;;;;;;4.00;1.20;;;14.10;99.90;;;;;;5086342;28;20023;-55
2022/09/15 03:39:03;;;;;;;3.75;1.52;;;14.10;99.90;;;;;;5085322;28;20093;-55
2022/09/15 03:41:28;;;;;;;7.00;1.75;;;14.20;99.90;;;;;;5092665;28;20044;-52
2022/09/15 03:43:54;;;;;;;6.22;1.27;;;14.20;99.90;;;;;;5109794;28;20415;-53
2022/09/15 03:46:20;;;;;;;3.75;0.95;;;14.20;99.90;;;;;;5092905;28;20038;-53
2022/09/15 03:48:48;;;;;;;6.68;1.13;;;14.20;99.90;;;;;;5106578;28;20036;-55
2022/09/15 03:51:14;;;;;;;5.50;1.30;;;14.20;99.90;;;;;;5091216;28;20389;-54
2022/09/15 03:53:40;;;;;;;6.13;1.40;;;14.20;99.90;;;;;;5108295;28;20036;-53
2022/09/15 03:56:22;;;;;;;3.88;0.93;;;14.20;99.90;;;;;;5091066;28;20075;-55
2022/09/15 03:58:49;;;;;;;4.32;0.80;;;14.20;99.90;;;;;;5108508;28;20389;-55
2022/09/15 04:01:14;;;;;;;;;;;14.20;99.90;;;;;;5110697;28;20035;-53
2022/09/15 04:03:40;;;;;;;1.70;0.40;;;14.20;99.90;;;;;;5089285;28;20325;-54
2022/09/15 04:06:06;;;;;;;6.18;1.17;;;14.20;99.90;;;;;;5090019;28;20036;-53
2022/09/15 04:08:31;;;;;;;2.88;0.73;;;14.20;99.90;;;;;;5104514;28;20115;-54
2022/09/15 04:10:59;;;;;;;3.40;0.80;;;14.20;99.90;;;;;;5092596;28;20120;-52
2022/09/15 04:13:25;;;;;;;6.35;1.02;;;14.20;99.90;;;;;;5104516;28;20050;-54
2022/09/15 04:16:23;;;;;;;10.60;1.42;;;14.20;99.90;;;;;;5109385;28;20040;-51
2022/09/15 04:18:51;;;;;;;9.43;1.05;;;14.10;99.90;;;;;;5062885;28;20531;-51
2022/09/15 04:21:19;;;;;;;6.57;1.60;;;14.10;99.90;;;;;;5049787;28;20056;-54
2022/09/15 04:23:45;;;;;;;3.60;0.80;;;14.10;99.90;;;;;;5062549;28;20052;-55
2022/09/15 04:26:20;;;;;;;6.95;1.73;;;14.10;99.90;;;;;;5031348;28;20124;-52
2022/09/15 04:28:45;;;;;;;3.28;0.80;;;14.10;99.90;;;;;;5038980;28;20098;-54
2022/09/15 04:31:13;;;;;;;1.80;0.98;;;14.10;99.90;;;;;;5050737;28;20033;-51
2022/09/15 04:33:40;;;;;;;4.97;1.60;;;14.10;99.90;;;;;;5049855;28;20461;-54
2022/09/15 04:36:11;;;;;;;5.45;1.45;;;14.10;99.90;;;;;;5014292;28;20130;-52
2022/09/15 04:38:37;;;;;;;5.65;2.13;;;14.10;99.90;;;;;;5045814;28;20052;-54
2022/09/15 04:41:04;;;;;;;6.88;2.15;;;14.10;99.90;;;;;;5049339;28;20508;-54
2022/09/15 04:43:30;;;;;;;2.85;1.42;;;14.10;99.90;;;;;;5050810;28;20048;-52
2022/09/15 04:45:56;;;;;;;3.58;2.10;;;14.10;99.90;;;;;;5034795;28;20110;-51
2022/09/15 04:48:23;;;;;;;5.05;1.95;;;14.10;99.90;;;;;;5051303;28;20049;-51
2022/09/15 04:50:48;;;;;;;4.20;1.33;;;14.00;99.90;;;;;;5049890;28;20037;-52
2022/09/15 04:53:15;;;;;;;5.60;2.15;;;14.10;99.90;;;;;;5050341;28;20041;-54
2022/09/15 04:55:40;;;;;;;;;;;14.10;99.90;;;;;;5081504;28;20047;-51
2022/09/15 04:58:06;;;;;;;5.10;1.45;;;14.00;99.90;;;;;;5089468;28;20361;-52
2022/09/15 05:00:36;;;;;;;3.42;1.60;;;14.00;99.90;;;;;;5113483;28;20031;-54
2022/09/15 05:03:01;;;;;;;4.60;1.50;;;14.10;99.90;;;;;;5104032;28;20192;-53
2022/09/15 05:05:27;;;;;;;6.73;2.13;;;14.00;99.90;;;;;;5094627;28;20510;-51
2022/09/15 05:07:52;;;;;;;5.43;1.15;;;14.10;99.90;;;;;;5081698;28;20384;-51
2022/09/15 05:10:19;;;;;;;6.80;1.58;;;14.10;99.90;;;;;;5093373;28;20043;-53
2022/09/15 05:12:45;;;;;;;9.35;1.40;;;14.10;99.90;;;;;;5092516;28;20114;-54
2022/09/15 05:15:11;;;;;;;3.53;1.02;;;14.10;99.90;;;;;;5106015;28;20040;-53
2022/09/15 05:17:37;;;;;;;6.60;1.20;;;14.10;99.90;;;;;;5082625;28;20039;-52
2022/09/15 05:20:04;;;;;;;3.53;0.95;;;14.10;99.90;;;;;;5100070;28;20042;-51
2022/09/15 05:22:30;;;;;;;7.55;1.60;;;14.10;99.90;;;;;;5113366;27;20050;-51
2022/09/15 05:24:56;;;;;;;;;;;14.00;99.90;;;;;;5075168;28;20497;-51
2022/09/15 05:27:21;;;;;;;2.38;0.80;;;14.00;99.90;;;;;;5076719;28;19969;-52
2022/09/15 05:29:47;;;;;;;4.10;1.30;;;14.00;99.90;;;;;;5093978;28;20044;-50
2022/09/15 05:32:13;;;;;;;3.00;1.10;;;13.90;99.90;;;;;;5080840;28;20316;-52
2022/09/15 05:34:38;;;;;;;7.97;1.55;;;14.00;99.90;;;;;;5097147;28;20040;-51
2022/09/15 05:37:04;;;;;;;11.18;1.20;;;13.90;99.90;;;;;;5092003;28;20028;-52
2022/09/15 05:39:30;;;;;;;6.72;1.20;;;13.90;99.90;;;;;;5110423;28;20039;-53
2022/09/15 05:41:55;;;;;;;3.40;1.05;;;14.00;99.90;;;;;;5112991;28;20039;-51
2022/09/15 05:44:21;;;;;;;3.42;1.50;;;14.00;99.90;;;;;;5099353;28;20041;-52
2022/09/15 05:46:47;;;;;;;6.60;0.80;;;14.00;99.90;;;;;;5094234;28;20035;-52
2022/09/15 05:49:13;;;;;;;8.45;0.82;;;14.00;99.90;;;;;;5110736;27;20122;-54
2022/09/15 05:51:38;;;;;;;7.53;1.00;;;14.10;99.90;;;;;;5094759;28;20123;-53
2022/09/15 05:54:04;;;;;;;5.47;0.55;;;14.10;99.90;;;;;;5101202;28;20071;-51
2022/09/15 05:56:30;;;;;;;4.10;0.88;;;14.10;99.90;;;;;;5076084;28;20036;-51
2022/09/15 05:58:56;;;;;;;8.85;0.50;;;14.10;99.90;;;;;;5088843;28;20040;-52
2022/09/15 06:01:29;;;;;;;10.23;1.17;;;14.20;99.90;;;;;;5091583;28;20378;-54
2022/09/15 06:03:56;;;;;;;7.95;1.00;;;14.20;99.90;;;;;;5097422;28;20123;-53
2022/09/15 06:06:24;;;;;;;2.70;0.50;;;14.20;99.90;;;;;;5099923;28;20515;-53
2022/09/15 06:08:54;;;;;;;6.38;0.65;;;14.20;99.90;;;;;;5100821;28;20557;-55
2022/09/15 06:11:22;;;;;;;4.47;0.45;;;14.30;99.90;;;;;;5107010;28;20038;-55
2022/09/15 06:13:48;;;;;;;3.60;0.50;;;14.30;99.90;;;;;;5089793;28;20040;-55
2022/09/15 06:16:18;;;;;;;;;;;14.30;99.90;;;;;;5104789;28;20455;-52
2022/09/15 06:18:44;;;;;;;13.95;1.35;;;14.30;99.90;;;;;;5111088;28;19916;-54
2022/09/15 06:21:20;;;;;;;;;;;14.30;99.90;;;;;;5113025;28;20100;-53
2022/09/15 06:23:50;;;;;;;17.15;0.85;;;14.30;99.90;;;;;;5104557;28;19916;-51
2022/09/15 06:26:18;;;;;;;4.43;0.40;;;14.40;99.90;;;;;;5091019;28;20040;-55
2022/09/15 06:28:51;;;;;;;6.65;0.70;;;14.40;99.90;;;;;;5100515;28;20138;-51
2022/09/15 06:31:17;;;;;;;9.27;0.80;;;14.40;99.90;;;;;;5091498;27;20451;-51
2022/09/15 06:33:45;;;;;;;7.90;1.00;;;14.40;99.90;;;;;;5095453;28;20032;-51
2022/09/15 06:36:12;;;;;;;2.08;0.45;;;14.40;99.90;;;;;;5088657;28;20068;-54
2022/09/15 06:38:39;;;;;;;7.60;0.93;;;14.40;99.90;;;;;;5071181;28;20489;-51
2022/09/15 06:41:05;;;;;;;7.03;1.08;;;14.40;99.90;;;;;;5070851;28;20558;-53
2022/09/15 06:43:31;;;;;;;2.20;0.68;;;14.50;99.90;;;;;;5069534;28;20622;-52
2022/09/15 06:46:01;;;;;;;;;;;14.60;99.90;;;;;;5071145;28;20513;-54
2022/09/15 06:48:26;;;;;;;4.05;0.40;;;14.70;99.90;;;;;;5072074;28;19920;-51
2022/09/15 06:50:53;;;;;;;10.93;0.70;;;14.90;99.90;;;;;;5077147;28;20036;-52
2022/09/15 06:53:20;;;;;;;7.63;1.13;;;14.90;99.90;;;;;;5091082;28;20059;-52
2022/09/15 06:55:46;;;;;;;3.03;0.35;;;15.00;99.90;;;;;;5090864;28;20044;-50
2022/09/15 06:58:12;;;;;;;10.52;0.98;;;15.10;99.90;;;;;;5080120;28;20090;-54
2022/09/15 07:00:38;;;;;;;3.75;0.52;;;15.10;99.90;;;;;;5070999;28;20036;-52
2022/09/15 07:03:03;;;;;;;2.58;0.30;;;15.20;99.90;;;;;;5070292;28;20040;-53
2022/09/15 07:05:29;;;;;;;5.68;0.80;;;15.20;99.90;;;;;;5093908;28;20067;-50
2022/09/15 07:07:54;;;;;;;5.07;0.50;;;15.20;99.90;;;;;;5087632;28;20126;-54
2022/09/15 07:10:20;;;;;;;7.22;0.50;;;15.30;99.90;;;;;;5071151;28;20270;-54
2022/09/15 07:12:45;;;;;;;7.60;0.77;;;15.40;99.90;;;;;;5106791;28;20040;-54
2022/09/15 07:15:11;;;;;;;13.02;0.60;;;15.40;99.90;;;;;;5088159;28;20037;-52
2022/09/15 07:17:37;;;;;;;3.47;0.63;;;15.40;99.90;;;;;;5102444;28;20085;-51
2022/09/15 07:20:03;;;;;;;7.05;1.05;;;15.40;99.90;;;;;;5085014;28;20111;-51
2022/09/15 07:22:29;;;;;;;8.68;0.75;;;15.50;99.90;;;;;;5086012;28;20043;-52
2022/09/15 07:24:54;;;;;;;6.40;0.45;;;15.50;99.90;;;;;;5102528;28;20035;-52
2022/09/15 07:27:25;;;;;;;9.00;0.90;;;15.60;99.90;;;;;;5086762;28;20123;-54
2022/09/15 07:29:50;;;;;;;3.85;1.00;;;15.60;99.90;;;;;;5070647;28;20040;-51
2022/09/15 07:32:16;;;;;;;5.90;1.40;;;15.70;99.90;;;;;;5086929;28;20226;-52
2022/09/15 07:34:41;;;;;;;2.80;0.50;;;15.70;99.90;;;;;;5088485;28;20294;-54
2022/09/15 07:37:07;;;;;;;7.57;0.50;;;15.70;99.90;;;;;;5108747;28;20095;-53
2022/09/15 07:39:32;;;;;;;9.25;1.35;;;15.80;99.90;;;;;;5078816;28;20126;-52
2022/09/15 07:41:58;;;;;;;8.20;0.60;;;15.80;99.90;;;;;;5090590;28;20408;-54
2022/09/15 07:44:24;;;;;;;5.55;0.75;;;15.90;99.90;;;;;;5089147;28;20324;-51
2022/09/15 07:46:49;;;;;;;6.35;0.90;;;15.90;99.90;;;;;;5089987;28;20043;-53
2022/09/15 07:49:15;;;;;;;8.20;1.02;;;16.00;99.90;;;;;;5090458;28;20040;-52
2022/09/15 07:51:41;;;;;;;5.50;0.63;;;16.10;99.90;;;;;;5091090;28;20107;-56
2022/09/15 07:54:07;;;;;;;5.93;0.70;;;16.20;99.90;;;;;;5098742;28;20073;-54
2022/09/15 07:56:33;;;;;;;4.63;0.70;;;16.30;99.90;;;;;;5091102;28;20040;-55
2022/09/15 07:58:58;;;;;;;3.63;0.50;;;16.50;99.90;;;;;;5090395;28;20055;-52
2022/09/15 08:01:24;;;;;;;4.60;0.65;;;16.60;99.90;;;;;;5090440;28;20044;-53
2022/09/15 08:03:50;;;;;;;2.53;0.50;;;16.70;99.90;;;;;;5103992;28;20060;-53
2022/09/15 08:06:19;;;;;;;11.98;0.63;;;16.80;99.90;;;;;;5089455;28;20044;-53
2022/09/15 08:08:45;;;;;;;3.55;0.45;;;16.90;99.90;;;;;;5102235;28;20044;-51
2022/09/15 08:11:16;;;;;;;10.80;0.85;;;17.00;99.90;;;;;;5093655;28;20040;-50
2022/09/15 08:13:42;;;;;;;2.53;0.40;;;17.10;99.90;;;;;;5088375;28;20097;-51
2022/09/15 08:16:10;;;;;;;7.63;0.32;;;17.10;99.90;;;;;;5089844;28;20044;-54
2022/09/15 08:18:37;;;;;;;6.18;0.85;;;17.20;99.90;;;;;;5094644;28;20527;-54
2022/09/15 08:21:03;;;;;;;;;;;17.30;99.90;;;;;;5069623;28;20050;-52
2022/09/15 08:23:28;;;;;;;7.53;0.70;;;17.40;99.90;;;;;;5097681;28;19924;-56
2022/09/15 08:25:54;;;;;;;4.63;0.50;;;17.50;99.90;;;;;;5110404;28;20411;-56
2022/09/15 08:28:19;;;;;;;5.60;0.30;;;17.60;99.90;;;;;;5097549;28;20559;-56
2022/09/15 08:30:45;;;;;;;6.57;0.75;;;17.60;99.90;;;;;;5089976;28;20114;-56
2022/09/15 08:33:10;;;;;;;7.22;0.80;;;17.70;99.90;;;;;;5099999;28;20079;-56
2022/09/15 08:35:36;;;;;;;5.38;0.88;;;17.80;99.90;;;;;;5092375;28;20088;-55
2022/09/15 08:38:01;;;;;;;4.43;0.90;;;18.00;99.70;;;;;;5096557;28;20040;-55
2022/09/15 08:40:37;;;;;;;4.88;0.40;;;18.20;99.60;;;;;;5109993;28;20046;-57
2022/09/15 08:43:16;;;;;;;4.45;0.50;;;18.40;99.00;;;;;;5100657;28;20092;-56
2022/09/15 08:46:00;;;;;;;8.70;0.45;;;18.50;98.50;;;;;;5088493;28;20040;-57
2022/09/15 08:48:32;;;;;;;6.88;0.75;;;18.60;98.60;;;;;;5100277;28;20072;-55
2022/09/15 08:51:00;;;;;;;6.68;0.40;;;18.70;98.30;;;;;;5110172;28;20036;-56
2022/09/15 08:53:39;;;;;;;6.53;0.55;;;18.80;98.40;;;;;;5097974;28;20040;-56
2022/09/15 08:56:16;;;;;;;5.28;0.30;;;19.00;98.00;;;;;;5097475;28;20039;-56
2022/09/15 08:58:42;;;;;;;3.72;0.38;;;19.20;97.30;;;;;;5098362;28;20047;-55
2022/09/15 09:01:14;;;;;;;4.75;0.68;;;19.40;96.90;;;;;;5089820;28;20509;-54
2022/09/15 09:04:17;;;;;;;5.82;0.50;;;19.40;96.70;;;;;;5099262;28;20051;-54
2022/09/15 09:06:56;;;;;;;5.47;0.57;;;19.40;96.10;;;;;;5108022;28;20071;-56
2022/09/15 09:09:44;;;;;;;7.85;0.43;;;19.30;96.00;;;;;;5097200;28;20040;-54
2022/09/15 09:12:31;;;;;;;4.38;0.40;;;19.20;96.10;;;;;;5093517;28;20040;-53
2022/09/15 09:15:22;;;;;;;7.45;0.40;;;19.10;95.80;;;;;;5092935;28;20040;-53
2022/09/15 09:18:15;;;;;;;5.85;0.20;;;19.10;96.00;;;;;;5086412;28;20496;-54
2022/09/15 09:20:46;;;;;;;5.20;0.40;;;18.90;94.70;;;;;;5113698;28;20043;-56
2022/09/15 09:23:19;;;;;;;3.75;0.50;;;18.90;95.40;;;;;;5108498;28;20512;-54
2022/09/15 09:25:45;;;;;;;5.93;0.85;;;18.90;95.50;;;;;;5093022;28;20039;-52
2022/09/15 09:28:35;;;;;;;7.30;0.30;;;18.80;95.40;;;;;;5097261;28;20433;-55
2022/09/15 09:31:06;;;;;;;3.00;0.30;;;18.80;95.30;;;;;;5113769;28;20153;-53
2022/09/15 09:33:43;;;;;;;3.50;0.43;;;19.00;95.70;;;;;;5101639;28;20039;-57
2022/09/15 09:36:11;;;;;;;4.22;0.35;;;19.20;95.10;;;;;;5097940;28;20040;-55
2022/09/15 09:38:42;;;;;;;7.20;1.05;;;19.30;95.00;;;;;;5106450;28;20039;-54
2022/09/15 09:41:16;;;;;;;3.60;0.20;;;19.50;94.20;;;;;;5113049;28;20054;-55
2022/09/15 09:43:45;;;;;;;1.90;0.20;;;19.60;94.10;;;;;;5107597;28;20047;-56
2022/09/15 09:46:16;;;;;;;2.25;0.28;;;19.80;93.90;;;;;;5096235;28;20047;-56
2022/09/15 09:49:09;;;;;;;2.00;0.30;;;19.90;93.60;;;;;;5092472;28;20047;-53
2022/09/15 09:51:52;;;;;;;3.13;0.47;;;20.00;93.30;;;;;;5091458;28;20144;-55
2022/09/15 09:54:20;;;;;;;2.80;0.20;;;20.10;93.40;;;;;;5092371;28;20071;-55
2022/09/15 09:56:48;;;;;;;5.43;0.30;;;20.30;93.70;;;;;;5091950;28;20028;-55
2022/09/15 09:59:49;;;;;;;3.92;0.30;;;20.40;93.10;;;;;;5100897;28;20119;-54
2022/09/15 10:02:18;;;;;;;1.52;0.40;;;20.40;92.50;;;;;;5101723;28;20463;-56
2022/09/15 10:04:49;;;;;;;7.38;0.45;;;20.40;92.70;;;;;;5089811;28;20032;-55
2022/09/15 10:07:18;;;;;;;1.50;0.20;;;20.50;93.30;;;;;;5091839;28;20040;-55
2022/09/15 10:09:53;;;;;;;5.03;0.30;;;20.60;92.50;;;;;;5092335;28;20511;-55
2022/09/15 10:12:23;;;;;;;3.33;0.35;;;20.70;92.60;;;;;;5092232;28;20032;-55
2022/09/15 10:14:52;;;;;;;1.13;0.20;;;20.60;92.20;;;;;;5091913;28;20067;-54
2022/09/15 10:17:21;;;;;;;5.78;0.47;;;20.60;92.10;;;;;;5097510;28;20042;-53
2022/09/15 10:19:57;;;;;;;1.70;0.20;;;20.50;91.80;;;;;;5095254;28;20508;-53
2022/09/15 10:22:29;;;;;;;2.03;0.20;;;20.40;91.80;;;;;;5110327;28;20035;-52
2022/09/15 10:24:55;;;;;;;1.73;0.30;;;20.30;92.20;;;;;;5110252;28;20048;-53
2022/09/15 10:27:28;;;;;;;;;;;20.30;92.20;;;;;;5101617;27;20084;-56
2022/09/15 10:29:54;;;;;;;7.50;0.73;;;20.20;92.20;;;;;;5084681;28;19923;-56
2022/09/15 10:32:26;;;;;;;8.65;0.32;;;20.10;92.50;;;;;;5087035;28;20064;-55
2022/09/15 10:35:13;;;;;;;4.53;0.22;;;20.10;92.50;;;;;;5086168;28;20115;-53
2022/09/15 10:37:57;;;;;;;2.17;0.20;;;20.10;91.10;;;;;;5086409;28;20032;-52
2022/09/15 10:40:34;;;;;;;6.15;0.40;;;20.00;91.90;;;;;;5092053;28;20044;-55
2022/09/15 10:43:21;;;;;;;3.78;0.43;;;20.00;91.40;;;;;;5096866;27;20038;-55
2022/09/15 10:45:48;;;;;;;4.97;0.20;;;20.00;91.90;;;;;;5092678;28;20031;-51
2022/09/15 10:48:30;;;;;;;6.20;1.02;;;20.00;92.10;;;;;;5082926;28;20041;-54
2022/09/15 10:51:37;;;;;;;10.00;0.43;;;19.90;91.00;;;;;;5079482;28;20103;-54
2022/09/15 10:54:05;;;;;;;3.65;0.22;;;19.80;91.60;;;;;;5083712;28;20055;-53
2022/09/15 10:56:35;;;;;;;1.65;0.10;;;19.80;91.70;;;;;;5091066;28;20047;-52
2022/09/15 10:59:21;;;;;;;1.88;0.20;;;19.80;91.30;;;;;;5094866;28;20112;-55
2022/09/15 11:02:15;;;;;;;1.95;0.13;;;19.90;91.10;;;;;;5111564;28;20046;-53
2022/09/15 11:05:08;;;;;;;6.28;0.20;;;20.00;90.10;;;;;;5103091;28;20088;-53
2022/09/15 11:07:43;;;;;;;2.95;0.10;;;20.00;90.50;;;;;;5083457;28;20079;-54
2022/09/15 11:10:43;;;;;;;1.85;0.50;;;20.30;91.00;;;;;;5088814;28;20038;-56
2022/09/15 11:13:38;;;;;;;2.20;0.30;;;20.50;90.90;;;;;;5051671;28;20136;-54
2022/09/15 11:16:07;;;;;;;5.25;0.20;;;20.70;90.70;;;;;;5079100;28;20095;-52
2022/09/15 11:18:51;;;;;;;3.45;0.30;;;20.80;91.10;;;;;;5081646;28;20036;-52
2022/09/15 11:21:31;;;;;;;2.42;0.10;;;21.00;90.50;;;;;;5073982;28;20074;-54
2022/09/15 11:24:34;;;;;;;4.63;0.40;;;21.20;90.60;;;;;;5062048;28;20101;-53
2022/09/15 11:27:34;;;;;;;2.13;0.30;;;21.40;90.00;;;;;;5081139;28;20035;-55
2022/09/15 11:30:13;;;;;;;1.70;0.10;;;21.70;90.10;;;;;;5087034;28;20044;-55
2022/09/15 11:33:00;;;;;;;2.42;0.10;;;21.70;84.80;;;;;;5091358;28;20092;-53
2022/09/15 11:35:38;;;;;;;2.13;0.20;;;21.70;82.40;;;;;;5099739;28;20044;-54
2022/09/15 11:38:25;;;;;;;1.70;0.40;;;21.60;84.40;;;;;;5095968;28;20035;-54
2022/09/15 11:41:32;;;;;;;2.88;0.10;;;21.60;85.30;;;;;;5069652;28;20085;-56
2022/09/15 11:44:32;;;;;;;14.30;0.50;;;21.50;83.00;;;;;;5091302;28;20054;-54
2022/09/15 11:47:04;;;;;;;11.55;0.50;;;21.70;89.30;;;;;;5097988;28;20043;-52
2022/09/15 11:50:13;;;;;;;2.95;0.20;;;21.50;89.50;;;;;;5089529;28;20063;-52
2022/09/15 11:52:51;;;;;;;2.75;0.20;;;21.30;90.00;;;;;;5092080;28;20070;-55
2022/09/15 11:55:38;;;;;;;4.20;0.30;;;20.90;90.60;;;;;;5098495;28;20093;-55
2022/09/15 11:58:28;;;;;;;5.00;0.40;;;20.70;90.80;;;;;;5094468;28;20039;-54
2022/09/15 12:00:59;;;;;;;4.60;0.50;;;20.50;91.90;;;;;;5092162;28;20492;-52
2022/09/15 12:03:51;;;;;;;2.78;0.20;;;20.20;92.40;;;;;;5094975;28;20036;-51
2022/09/15 12:06:38;;;;;;;3.90;0.20;;;20.00;93.10;;;;;;5085466;28;20075;-51
2022/09/15 12:09:05;;;;;;;3.50;0.20;;;19.70;94.60;;;;;;5103377;28;20039;-52
2022/09/15 12:11:35;;;;;;;3.42;0.85;;;19.50;94.40;;;;;;5094761;28;20103;-52
2022/09/15 12:14:06;;;;;;;2.55;0.30;;;19.30;95.10;;;;;;5097398;28;20048;-52
2022/09/15 12:16:33;;;;;;;7.47;0.55;;;19.20;95.50;;;;;;5089916;28;20075;-57
2022/09/15 12:19:10;;;;;;;5.90;0.30;;;19.00;95.70;;;;;;5086485;28;20145;-53
2022/09/15 12:22:00;;;;;;;7.72;0.30;;;18.90;95.90;;;;;;5095896;28;20461;-52
2022/09/15 12:25:08;;;;;;;1.95;0.43;;;18.80;96.30;;;;;;5087202;28;20066;-56
2022/09/15 12:27:33;;;;;;;5.78;0.45;;;18.80;97.00;;;;;;5083230;28;20054;-52
2022/09/15 12:29:59;;;;;;;;;;;18.90;97.30;;;;;;5107695;28;20044;-53
2022/09/15 12:32:33;;;;;;;3.38;0.40;;;19.00;97.70;;;;;;5088416;28;19938;-58
2022/09/15 12:35:17;;;;;;;1.83;0.50;;;19.20;96.70;;;;;;5086860;28;20432;-58
2022/09/15 12:37:53;;;;;;;4.75;0.52;;;19.20;96.30;;;;;;5090451;28;20124;-53
2022/09/15 12:40:37;;;;;;;3.60;0.30;;;19.30;96.20;;;;;;5075882;28;20033;-52
2022/09/15 12:43:17;;;;;;;5.18;0.73;;;19.30;95.80;;;;;;5090274;28;20057;-53
2022/09/15 12:45:56;;;;;;;3.60;0.28;;;19.30;96.30;;;;;;5097274;28;20647;-51
2022/09/15 12:48:29;;;;;;;3.95;0.22;;;19.30;96.10;;;;;;5079182;28;20050;-52
2022/09/15 12:51:01;;;;;;;3.45;0.28;;;19.30;96.50;;;;;;5100457;28;20404;-51
2022/09/15 12:53:31;;;;;;;2.35;0.35;;;19.30;96.30;;;;;;5094058;28;20042;-52
2022/09/15 12:56:06;;;;;;;2.63;0.20;;;19.20;96.30;;;;;;5099077;28;20089;-52
2022/09/15 12:58:35;;;;;;;3.90;0.30;;;19.20;96.20;;;;;;5094986;28;20374;-51
2022/09/15 13:01:27;;;;;;;4.60;0.40;;;19.20;96.10;;;;;;5095878;28;20089;-53
2022/09/15 13:03:53;;;;;;;5.30;0.45;;;19.10;96.10;;;;;;5096632;28;20492;-52
2022/09/15 13:06:29;;;;;;;5.88;0.50;;;19.00;96.50;;;;;;5077933;28;20036;-51
2022/09/15 13:09:00;;;;;;;1.33;0.20;;;18.90;96.30;;;;;;5080824;28;20051;-54
2022/09/15 13:11:49;;;;;;;2.25;0.15;;;18.80;96.30;;;;;;5097650;28;20085;-54
2022/09/15 13:14:40;;;;;;;4.13;0.50;;;18.70;96.50;;;;;;5107525;28;20032;-54
2022/09/15 13:17:19;;;;;;;3.88;0.30;;;18.70;96.40;;;;;;5112809;28;20043;-51